Granite, Colorado
Current Conditions -  °F | °C
As of 11:39 PM on Tuesday 25 Nov 2014 (Local Time) from KLXV Reporting Station
Light Snow Light Snow  
Wind Chill: 10°   Ceiling: 2400
Heat Index: 23°   Visibility: 3mi
Dew Point: 19°   Wind: 15mph
Humidity: 85%   Direction: 330°NNW
Pressure: 30.2"   Gusts: 18mph
Location:  39.05°N, 106.27°W
Report Text: KLXV 260639Z AUTO 33013G16KT 3SM -SN BR BKN024 OVC043 M05/M07 A3020 RMK AO2 P0001 T10501072
Loading
Personal Weather Stations






























Interactive Weather Map New forecast layout! Learn more

10-Day Weather Forecast

Advertisements
Track Severe Weather on mobile